Time;durP1;ratioP1;P1;durP2;ratioP2;P2;SDS_P1;SDS_P2;PMS_P1;PMS_P2;Temp;Humidity;BMP_temperature;BMP_pressure;BME280_temperature;BME280_humidity;BME280_pressure;Samples;Min_cycle;Max_cycle;Signal;HPM_P1;HPM_P2
2022/04/24 00:00:15;;;;;;;7.70;4.43;;;14.40;99.90;;;;;;4916000;29;20222;-70
2022/04/24 00:02:42;;;;;;;9.33;4.40;;;14.20;99.90;;;;;;4915032;29;20205;-68
2022/04/24 00:05:10;;;;;;;7.77;4.10;;;14.20;99.90;;;;;;4915597;29;20205;-68
2022/04/24 00:07:37;;;;;;;9.87;4.40;;;14.30;99.90;;;;;;4915339;29;20212;-68
2022/04/24 00:10:06;;;;;;;8.80;4.47;;;14.40;99.90;;;;;;4914715;29;20237;-68
2022/04/24 00:12:33;;;;;;;6.60;4.47;;;14.50;99.90;;;;;;4915543;29;20212;-69
2022/04/24 00:14:59;;;;;;;7.70;4.37;;;14.50;99.90;;;;;;4915739;29;20236;-72
2022/04/24 00:17:26;;;;;;;8.07;4.63;;;14.50;99.90;;;;;;4915968;29;20201;-67
2022/04/24 00:19:53;;;;;;;8.03;4.20;;;14.40;99.90;;;;;;4915948;29;20233;-68
2022/04/24 00:22:20;;;;;;;6.97;3.90;;;14.50;99.90;;;;;;4916076;29;20216;-70
2022/04/24 00:24:46;;;;;;;7.00;3.97;;;14.50;99.90;;;;;;4915923;29;20213;-71
2022/04/24 00:27:15;;;;;;;8.17;3.63;;;14.30;99.90;;;;;;4913966;29;20667;-67
2022/04/24 00:29:42;;;;;;;7.47;3.97;;;14.20;99.90;;;;;;4909012;29;20237;-71
2022/04/24 00:32:10;;;;;;;10.53;4.20;;;14.20;99.90;;;;;;4897196;29;20270;-69
2022/04/24 00:34:36;;;;;;;6.50;3.90;;;14.20;99.90;;;;;;4895974;29;20569;-67
2022/04/24 00:37:04;;;;;;;6.57;3.90;;;14.30;99.90;;;;;;4908692;29;20201;-69
2022/04/24 00:39:30;;;;;;;5.53;3.73;;;14.30;99.90;;;;;;4915218;29;20232;-67
2022/04/24 00:41:57;;;;;;;5.47;3.50;;;14.40;99.90;;;;;;4916829;29;20205;-71
2022/04/24 00:44:26;;;;;;;7.77;3.93;;;14.30;99.90;;;;;;4918757;29;20675;-67
2022/04/24 00:46:57;;;;;;;5.47;3.67;;;14.00;99.90;;;;;;4918810;29;20214;-69
2022/04/24 00:49:24;;;;;;;6.53;3.23;;;13.80;99.90;;;;;;4919155;29;20229;-68
2022/04/24 00:51:52;;;;;;;4.60;3.23;;;13.80;99.90;;;;;;4918769;29;20212;-72
2022/04/24 00:54:19;;;;;;;6.03;3.27;;;13.90;99.90;;;;;;4918776;29;20229;-67
2022/04/24 00:56:46;;;;;;;6.13;3.67;;;13.80;99.90;;;;;;4919146;29;20216;-68
2022/04/24 00:59:15;;;;;;;6.70;3.07;;;13.80;99.90;;;;;;4918800;29;20209;-67
2022/04/24 01:01:44;;;;;;;5.60;3.23;;;13.90;99.80;;;;;;4918314;29;20216;-68
2022/04/24 01:04:13;;;;;;;4.67;2.73;;;13.90;99.50;;;;;;4918969;29;20209;-67
2022/04/24 01:06:42;;;;;;;6.27;2.70;;;13.80;99.50;;;;;;4918628;29;20214;-70
2022/04/24 01:09:10;;;;;;;4.53;2.83;;;13.60;99.30;;;;;;4919178;29;20214;-68
2022/04/24 01:11:37;;;;;;;4.60;2.90;;;13.50;99.40;;;;;;4918641;29;20210;-67
2022/04/24 01:14:05;;;;;;;4.80;2.67;;;13.60;99.20;;;;;;4919727;29;20209;-67
2022/04/24 01:16:31;;;;;;;3.73;2.53;;;13.40;98.80;;;;;;4920053;29;20206;-68
2022/04/24 01:19:00;;;;;;;4.27;2.53;;;13.40;98.80;;;;;;4919011;29;20212;-72
2022/04/24 01:21:28;;;;;;;5.03;2.60;;;13.30;98.40;;;;;;4918737;29;20216;-67
2022/04/24 01:23:55;;;;;;;4.43;2.63;;;13.50;98.10;;;;;;4918274;29;20205;-68
2022/04/24 01:26:22;;;;;;;3.77;2.57;;;13.40;97.90;;;;;;4919327;29;20220;-71
2022/04/24 01:28:49;;;;;;;4.23;2.43;;;13.50;98.00;;;;;;4919233;29;20221;-67
2022/04/24 01:31:15;;;;;;;3.37;2.30;;;13.50;98.00;;;;;;4918405;29;20234;-72
2022/04/24 01:33:42;;;;;;;4.33;2.67;;;13.60;97.50;;;;;;4918277;29;20212;-68
2022/04/24 01:36:09;;;;;;;3.80;1.97;;;13.50;97.20;;;;;;4916720;29;20229;-69
2022/04/24 01:38:37;;;;;;;3.77;2.47;;;13.50;97.30;;;;;;4917824;29;20705;-68
2022/04/24 01:41:04;;;;;;;3.33;2.30;;;13.30;97.40;;;;;;4918922;29;20244;-67
2022/04/24 01:43:31;;;;;;;5.57;1.93;;;13.30;97.40;;;;;;4917203;29;20215;-68
2022/04/24 01:45:57;;;;;;;3.23;2.00;;;13.20;97.30;;;;;;4917526;29;20206;-68
2022/04/24 01:48:24;;;;;;;3.70;2.13;;;13.10;97.30;;;;;;4917633;29;20220;-68
2022/04/24 01:50:54;;;;;;;5.00;2.13;;;13.00;97.40;;;;;;4917451;29;20229;-67
2022/04/24 01:53:20;;;;;;;3.00;2.10;;;13.00;97.50;;;;;;4917048;29;20210;-67
2022/04/24 01:55:49;;;;;;;3.87;2.10;;;13.10;97.30;;;;;;4898894;29;20238;-70
2022/04/24 01:58:15;;;;;;;3.53;1.97;;;13.10;97.50;;;;;;4898503;29;20215;-67
2022/04/24 02:00:42;;;;;;;2.70;1.83;;;13.00;97.40;;;;;;4898710;29;20237;-68
2022/04/24 02:03:09;;;;;;;3.47;2.30;;;12.90;97.50;;;;;;4898776;29;20206;-67
2022/04/24 02:05:36;;;;;;;2.80;2.00;;;12.60;97.70;;;;;;4898538;29;20210;-68
2022/04/24 02:08:03;;;;;;;2.37;1.97;;;12.70;97.60;;;;;;4898721;29;20217;-68
2022/04/24 02:10:30;;;;;;;3.60;2.67;;;12.80;97.60;;;;;;4898132;29;20248;-69
2022/04/24 02:12:58;;;;;;;3.73;2.10;;;12.90;97.40;;;;;;4915094;29;20212;-71
2022/04/24 02:15:25;;;;;;;2.67;1.70;;;12.90;97.20;;;;;;4917425;29;20237;-68
2022/04/24 02:17:52;;;;;;;2.60;1.70;;;12.70;97.40;;;;;;4917540;29;20202;-67
2022/04/24 02:20:19;;;;;;;3.40;2.10;;;12.80;97.30;;;;;;4917663;29;21022;-68
2022/04/24 02:22:46;;;;;;;4.93;1.90;;;12.90;97.30;;;;;;4917666;29;20216;-68
2022/04/24 02:25:12;;;;;;;3.33;1.80;;;12.70;97.30;;;;;;4918349;29;20220;-67
2022/04/24 02:27:39;;;;;;;6.07;2.10;;;12.80;97.30;;;;;;4917669;29;20210;-67
2022/04/24 02:30:09;;;;;;;3.67;1.80;;;12.70;97.40;;;;;;4917287;29;20228;-68
2022/04/24 02:32:36;;;;;;;2.50;1.70;;;12.60;97.50;;;;;;4917123;29;20667;-68
2022/04/24 02:35:03;;;;;;;2.90;1.90;;;12.40;97.90;;;;;;4917458;29;20233;-68
2022/04/24 02:37:32;;;;;;;3.33;1.77;;;12.20;98.00;;;;;;4917564;29;20213;-67
2022/04/24 02:39:59;;;;;;;4.63;1.97;;;12.20;98.10;;;;;;4917315;29;20233;-67
2022/04/24 02:42:25;;;;;;;3.13;1.80;;;12.10;98.30;;;;;;4917952;29;20220;-68
2022/04/24 02:44:52;;;;;;;3.73;2.00;;;12.00;98.30;;;;;;4916443;29;20206;-68
2022/04/24 02:47:20;;;;;;;4.03;2.27;;;12.10;98.30;;;;;;4917577;29;20667;-68
2022/04/24 02:49:47;;;;;;;2.97;1.73;;;12.10;98.30;;;;;;4917860;29;20225;-68
2022/04/24 02:52:14;;;;;;;4.13;1.93;;;12.20;98.10;;;;;;4917097;29;20217;-67
2022/04/24 02:54:42;;;;;;;3.40;1.90;;;12.10;98.20;;;;;;4915268;29;20209;-68
2022/04/24 02:57:09;;;;;;;3.60;2.07;;;12.00;98.30;;;;;;4917677;29;20206;-72
2022/04/24 02:59:35;;;;;;;2.50;1.70;;;12.10;98.20;;;;;;4915473;29;20236;-68
2022/04/24 03:02:03;;;;;;;2.37;1.83;;;12.00;98.30;;;;;;4916152;29;20215;-68
2022/04/24 03:04:31;;;;;;;3.10;1.73;;;11.90;98.60;;;;;;4917015;29;20213;-67
2022/04/24 03:06:58;;;;;;;4.23;1.77;;;11.70;98.70;;;;;;4915680;29;20220;-68
2022/04/24 03:09:25;;;;;;;2.90;1.77;;;11.80;98.70;;;;;;4917113;29;20237;-68
2022/04/24 03:11:52;;;;;;;4.73;1.93;;;11.60;99.00;;;;;;4916126;29;20209;-67
2022/04/24 03:14:18;;;;;;;3.50;2.00;;;11.60;99.10;;;;;;4917242;29;20216;-67
2022/04/24 03:16:45;;;;;;;3.50;1.67;;;11.60;99.20;;;;;;4916283;29;20245;-67
2022/04/24 03:19:12;;;;;;;3.00;1.77;;;11.50;99.20;;;;;;4917303;29;20232;-67
2022/04/24 03:21:40;;;;;;;2.43;1.50;;;11.40;99.50;;;;;;4917502;29;20221;-68
2022/04/24 03:24:07;;;;;;;2.50;1.67;;;11.50;99.40;;;;;;4916943;29;20206;-68
2022/04/24 03:26:34;;;;;;;3.03;1.70;;;11.50;99.40;;;;;;4917074;29;20213;-67
2022/04/24 03:29:01;;;;;;;2.80;1.60;;;11.40;99.70;;;;;;4916110;29;20210;-68
2022/04/24 03:31:28;;;;;;;2.47;1.80;;;11.50;99.60;;;;;;4916559;29;20220;-68
2022/04/24 03:33:54;;;;;;;2.30;1.70;;;11.60;99.50;;;;;;4916305;29;20209;-69
2022/04/24 03:36:21;;;;;;;3.27;1.80;;;11.70;99.20;;;;;;4916156;29;20248;-68
2022/04/24 03:38:49;;;;;;;2.90;1.87;;;11.80;99.30;;;;;;4916587;29;20711;-68
2022/04/24 03:41:16;;;;;;;2.97;1.50;;;11.70;99.20;;;;;;4916488;29;20238;-69
2022/04/24 03:43:43;;;;;;;1.83;1.43;;;11.70;99.20;;;;;;4916303;29;20215;-68
2022/04/24 03:46:10;;;;;;;2.73;1.67;;;11.70;99.30;;;;;;4916563;29;20210;-68
2022/04/24 03:48:36;;;;;;;3.37;1.90;;;11.50;99.60;;;;;;4915653;29;20214;-68
2022/04/24 03:51:04;;;;;;;1.93;1.63;;;11.30;99.90;;;;;;4916271;29;20236;-69
2022/04/24 03:53:30;;;;;;;2.13;1.30;;;11.20;99.90;;;;;;4915575;29;20301;-68
2022/04/24 03:55:59;;;;;;;2.47;1.40;;;11.30;99.90;;;;;;4915845;29;20240;-70
2022/04/24 03:58:26;;;;;;;3.43;1.90;;;11.40;99.90;;;;;;4915631;29;20209;-68
2022/04/24 04:00:53;;;;;;;3.57;1.90;;;11.60;99.90;;;;;;4916291;29;20233;-68
2022/04/24 04:03:19;;;;;;;2.80;1.73;;;11.70;99.90;;;;;;4916627;29;20206;-74
2022/04/24 04:05:46;;;;;;;2.50;1.50;;;11.60;99.90;;;;;;4916885;29;20224;-73
2022/04/24 04:08:13;;;;;;;2.53;1.63;;;11.50;99.90;;;;;;4916103;29;20210;-68
2022/04/24 04:10:40;;;;;;;1.63;1.40;;;11.20;99.90;;;;;;4916445;29;20241;-68
2022/04/24 04:13:09;;;;;;;2.40;1.80;;;11.30;99.90;;;;;;4916271;29;20209;-68
2022/04/24 04:15:36;;;;;;;2.90;1.60;;;11.40;99.90;;;;;;4916977;29;20233;-69
2022/04/24 04:18:03;;;;;;;2.80;1.70;;;11.30;99.90;;;;;;4920027;29;20216;-68
2022/04/24 04:20:30;;;;;;;2.30;1.40;;;11.20;99.90;;;;;;4920219;29;20233;-69
2022/04/24 04:22:58;;;;;;;2.63;1.87;;;11.10;99.90;;;;;;4920365;29;20210;-68
2022/04/24 04:25:26;;;;;;;3.23;1.73;;;11.10;99.90;;;;;;4919930;29;20305;-68
2022/04/24 04:27:53;;;;;;;2.53;1.67;;;11.20;99.90;;;;;;4920640;29;20205;-69
2022/04/24 04:30:22;;;;;;;2.47;1.60;;;11.10;99.90;;;;;;4920154;29;20229;-69
2022/04/24 04:32:50;;;;;;;1.80;1.50;;;11.00;99.90;;;;;;4919269;29;20213;-68
2022/04/24 04:35:18;;;;;;;3.00;1.87;;;10.90;99.90;;;;;;4919955;29;20317;-69
2022/04/24 04:37:47;;;;;;;2.33;1.57;;;10.90;99.90;;;;;;4918106;29;20701;-68
2022/04/24 04:40:14;;;;;;;2.33;1.60;;;11.00;99.90;;;;;;4919813;29;20237;-69
2022/04/24 04:42:41;;;;;;;2.90;1.80;;;11.00;99.90;;;;;;4918137;29;20225;-69
2022/04/24 04:45:09;;;;;;;2.20;1.53;;;11.00;99.90;;;;;;4919284;29;20570;-69
2022/04/24 04:47:37;;;;;;;4.30;2.23;;;11.00;99.90;;;;;;4918806;29;20253;-72
2022/04/24 04:50:04;;;;;;;3.10;1.93;;;11.00;99.90;;;;;;4918372;29;20233;-72
2022/04/24 04:52:32;;;;;;;2.80;1.80;;;10.90;99.90;;;;;;4920396;29;20220;-69
2022/04/24 04:54:59;;;;;;;4.20;2.00;;;11.00;99.90;;;;;;4918030;29;20726;-69
2022/04/24 04:57:26;;;;;;;2.63;1.57;;;11.10;99.90;;;;;;4919873;29;20237;-72
2022/04/24 04:59:53;;;;;;;3.27;1.80;;;11.30;99.90;;;;;;4917626;29;20221;-74
2022/04/24 05:02:20;;;;;;;2.30;1.70;;;11.70;99.90;;;;;;4919235;29;20210;-68
2022/04/24 05:04:48;;;;;;;2.43;1.70;;;11.80;99.90;;;;;;4918062;29;20269;-69
2022/04/24 05:07:15;;;;;;;2.93;1.80;;;11.90;99.90;;;;;;4917725;29;20205;-69
2022/04/24 05:09:42;;;;;;;2.80;1.87;;;11.90;99.90;;;;;;4919302;29;20245;-73
2022/04/24 05:12:10;;;;;;;2.50;1.57;;;11.90;99.90;;;;;;4917431;29;20287;-68
2022/04/24 05:14:37;;;;;;;4.03;1.83;;;12.00;99.90;;;;;;4919431;29;20217;-69
2022/04/24 05:17:04;;;;;;;2.73;1.80;;;11.80;99.90;;;;;;4917327;29;20236;-72
2022/04/24 05:19:31;;;;;;;2.70;1.83;;;11.80;99.90;;;;;;4918553;29;20229;-73
2022/04/24 05:22:00;;;;;;;2.80;2.10;;;11.90;99.90;;;;;;4918066;29;20212;-68
2022/04/24 05:24:27;;;;;;;2.47;1.80;;;12.00;99.90;;;;;;4918171;29;20225;-68
2022/04/24 05:26:54;;;;;;;2.27;1.83;;;12.00;99.90;;;;;;4919346;29;20209;-72
2022/04/24 05:29:21;;;;;;;3.57;2.07;;;12.20;99.90;;;;;;4916485;29;20301;-71
2022/04/24 05:31:47;;;;;;;3.13;2.10;;;12.50;99.90;;;;;;4918785;29;20210;-72
2022/04/24 05:34:14;;;;;;;3.37;1.93;;;12.70;99.90;;;;;;4917006;29;20213;-69
2022/04/24 05:36:41;;;;;;;2.03;1.70;;;13.10;99.70;;;;;;4918780;29;20241;-69
2022/04/24 05:39:09;;;;;;;2.07;1.73;;;13.70;98.80;;;;;;4916621;29;20206;-73
2022/04/24 05:41:36;;;;;;;2.37;1.93;;;14.30;98.30;;;;;;4918528;29;20548;-69
2022/04/24 05:44:03;;;;;;;3.20;2.00;;;15.00;97.80;;;;;;4917637;29;20210;-69
2022/04/24 05:46:30;;;;;;;2.23;1.80;;;15.80;96.60;;;;;;4917205;29;20206;-69
2022/04/24 05:48:59;;;;;;;2.53;1.83;;;16.40;95.50;;;;;;4918778;29;20233;-69
2022/04/24 05:51:26;;;;;;;2.23;1.67;;;16.70;94.90;;;;;;4917060;29;20229;-69
2022/04/24 05:53:53;;;;;;;2.97;2.03;;;16.90;94.50;;;;;;4917780;29;20206;-68
2022/04/24 05:56:21;;;;;;;2.87;2.10;;;16.50;94.30;;;;;;4916919;29;20233;-69
2022/04/24 05:58:48;;;;;;;2.23;1.70;;;16.20;94.90;;;;;;4917905;29;20217;-70
2022/04/24 06:01:14;;;;;;;3.03;1.80;;;16.00;95.20;;;;;;4918642;29;20252;-72
2022/04/24 06:03:41;;;;;;;2.73;1.97;;;15.20;95.50;;;;;;4918288;29;20205;-69
2022/04/24 06:06:08;;;;;;;2.20;1.90;;;14.70;96.40;;;;;;4918099;29;20214;-70
2022/04/24 06:08:35;;;;;;;3.70;2.10;;;14.70;96.30;;;;;;4917523;29;20209;-68
2022/04/24 06:11:02;;;;;;;3.80;2.30;;;14.60;96.20;;;;;;4917511;29;20564;-70
2022/04/24 06:13:30;;;;;;;2.57;1.90;;;14.70;96.60;;;;;;4917029;29;20212;-68
2022/04/24 06:15:58;;;;;;;3.60;2.37;;;14.60;96.10;;;;;;4918419;29;20309;-69
2022/04/24 06:18:25;;;;;;;3.13;2.10;;;14.50;96.40;;;;;;4918619;29;20214;-68
2022/04/24 06:20:52;;;;;;;3.13;2.00;;;14.40;96.30;;;;;;4918382;29;20231;-68
2022/04/24 06:23:19;;;;;;;2.87;2.10;;;14.80;96.30;;;;;;4918532;29;20205;-71
2022/04/24 06:25:46;;;;;;;2.60;1.90;;;15.20;95.70;;;;;;4918300;29;20210;-68
2022/04/24 06:28:13;;;;;;;2.70;2.00;;;15.60;95.20;;;;;;4918309;29;20214;-68
2022/04/24 06:30:41;;;;;;;3.27;1.97;;;16.00;95.30;;;;;;4917337;29;20233;-68
2022/04/24 06:33:08;;;;;;;3.07;2.03;;;16.80;94.50;;;;;;4917917;29;20675;-71
2022/04/24 06:35:35;;;;;;;2.83;2.33;;;17.50;93.20;;;;;;4918016;29;20210;-72
2022/04/24 06:38:02;;;;;;;2.90;2.17;;;17.30;93.40;;;;;;4918105;29;20237;-72
2022/04/24 06:40:29;;;;;;;2.58;2.00;;;18.00;92.80;;;;;;4917848;29;20779;-73
2022/04/24 06:42:58;;;;;;;2.40;1.77;;;18.20;92.40;;;;;;4918206;29;20248;-71
2022/04/24 06:45:27;;;;;;;2.92;2.28;;;18.50;92.10;;;;;;4917650;29;20209;-71
2022/04/24 06:47:57;;;;;;;2.60;2.17;;;18.50;91.70;;;;;;4916791;29;20216;-71
2022/04/24 06:50:25;;;;;;;3.50;2.03;;;18.40;91.60;;;;;;4917074;29;20233;-67
2022/04/24 06:52:59;;;;;;;3.05;2.38;;;18.90;91.50;;;;;;4917786;29;20210;-68
2022/04/24 06:55:26;;;;;;;3.33;2.50;;;18.70;90.90;;;;;;4917619;29;20220;-72
2022/04/24 06:57:53;;;;;;;2.85;2.13;;;18.60;90.90;;;;;;4913904;29;20240;-68
2022/04/24 07:00:20;;;;;;;3.97;2.23;;;18.40;91.70;;;;;;4910471;29;20228;-68
2022/04/24 07:02:47;;;;;;;3.03;2.20;;;18.30;91.40;;;;;;4908434;29;20217;-68
2022/04/24 07:05:16;;;;;;;3.75;2.55;;;18.50;91.40;;;;;;4911982;29;20206;-71
2022/04/24 07:07:43;;;;;;;3.50;2.05;;;18.60;91.10;;;;;;4917042;29;20210;-68
2022/04/24 07:10:10;;;;;;;2.67;2.05;;;18.90;91.10;;;;;;4916926;29;20241;-67
2022/04/24 07:12:47;;;;;;;3.67;2.45;;;19.20;91.20;;;;;;4916758;29;20216;-70
2022/04/24 07:15:14;;;;;;;3.50;2.30;;;19.10;91.00;;;;;;4923744;23;20230;-73
2022/04/24 07:17:41;;;;;;;3.22;2.38;;;19.50;91.40;;;;;;4896620;29;20730;-72
2022/04/24 07:20:10;;;;;;;3.60;2.25;;;20.40;90.40;;;;;;4896932;29;20226;-72
2022/04/24 07:22:45;;;;;;;3.42;2.50;;;20.50;89.10;;;;;;4878247;29;20211;-73
2022/04/24 07:25:13;;;;;;;4.45;2.70;;;19.90;89.30;;;;;;4879317;29;20211;-72
2022/04/24 07:27:40;;;;;;;3.78;2.70;;;20.40;88.50;;;;;;4879422;29;20238;-73
2022/04/24 07:30:13;;;;;;;4.38;2.63;;;20.40;88.70;;;;;;4878924;29;20238;-73
2022/04/24 07:32:41;;;;;;;4.22;2.88;;;20.00;88.30;;;;;;4878826;29;20219;-73
2022/04/24 07:35:10;;;;;;;3.42;2.55;;;19.10;89.30;;;;;;4895673;29;20210;-72
2022/04/24 07:37:37;;;;;;;3.70;2.60;;;19.10;89.80;;;;;;4890984;29;20289;-72
2022/04/24 07:40:07;;;;;;;5.30;2.80;;;19.20;90.00;;;;;;4897302;29;20230;-72
2022/04/24 07:42:45;;;;;;;3.75;2.65;;;19.50;90.10;;;;;;4895577;29;20679;-72
2022/04/24 07:45:12;;;;;;;5.72;2.60;;;19.20;89.60;;;;;;4893151;29;20210;-71
2022/04/24 07:47:38;;;;;;;3.28;2.58;;;19.20;90.10;;;;;;4894682;29;20575;-73
2022/04/24 07:50:07;;;;;;;3.17;2.70;;;19.40;89.30;;;;;;4897036;29;20232;-73
2022/04/24 07:52:34;;;;;;;4.18;2.75;;;19.40;89.70;;;;;;4896332;29;20206;-72
2022/04/24 07:55:01;;;;;;;4.22;2.92;;;19.60;89.30;;;;;;4877527;29;20203;-73
2022/04/24 07:57:29;;;;;;;3.85;2.70;;;19.20;89.40;;;;;;4889932;29;20238;-73
2022/04/24 07:59:56;;;;;;;3.53;2.72;;;18.90;90.20;;;;;;4893400;29;20569;-72
2022/04/24 08:02:22;;;;;;;4.60;3.03;;;19.40;89.30;;;;;;4896222;29;20202;-72
2022/04/24 08:04:49;;;;;;;4.38;2.90;;;19.60;89.00;;;;;;4896437;29;20310;-72
2022/04/24 08:07:17;;;;;;;3.35;2.72;;;19.30;90.10;;;;;;4897249;29;20648;-72
2022/04/24 08:09:44;;;;;;;3.83;2.80;;;19.70;90.00;;;;;;4897277;29;20238;-71
2022/04/24 08:12:11;;;;;;;4.18;2.40;;;20.30;87.90;;;;;;4881521;29;20207;-72
2022/04/24 08:14:39;;;;;;;3.70;2.63;;;20.70;87.70;;;;;;4878682;29;20222;-72
2022/04/24 08:17:06;;;;;;;4.18;2.88;;;20.60;87.70;;;;;;4878387;29;20231;-72
2022/04/24 08:19:33;;;;;;;4.20;2.83;;;20.90;86.70;;;;;;4882541;29;20237;-73
2022/04/24 08:21:59;;;;;;;3.17;2.40;;;21.30;86.20;;;;;;4894855;29;20208;-72
2022/04/24 08:24:26;;;;;;;5.03;2.60;;;21.30;85.40;;;;;;4897423;29;20221;-73
2022/04/24 08:26:53;;;;;;;3.15;2.80;;;20.50;85.60;;;;;;4895277;29;20228;-72
2022/04/24 08:29:20;;;;;;;4.32;2.85;;;19.90;87.30;;;;;;4895963;29;20751;-72
2022/04/24 08:31:48;;;;;;;3.25;2.70;;;19.70;88.50;;;;;;4897056;29;20210;-72
2022/04/24 08:34:15;;;;;;;3.55;2.53;;;19.50;88.90;;;;;;4897086;29;20211;-72
2022/04/24 08:36:41;;;;;;;3.53;2.80;;;19.60;89.80;;;;;;4897607;29;20217;-72
2022/04/24 08:39:08;;;;;;;3.55;2.60;;;19.50;88.90;;;;;;4897493;29;20210;-72
2022/04/24 08:41:38;;;;;;;3.95;2.70;;;19.70;89.20;;;;;;4897420;29;20575;-71
2022/04/24 08:44:07;;;;;;;3.75;2.78;;;19.80;88.60;;;;;;4897760;29;20216;-72
2022/04/24 08:46:34;;;;;;;4.22;2.90;;;20.10;89.30;;;;;;4897277;29;20206;-72
2022/04/24 08:49:03;;;;;;;3.97;2.97;;;20.50;88.00;;;;;;4897534;29;20225;-72
2022/04/24 08:51:30;;;;;;;3.38;2.90;;;20.00;87.60;;;;;;4895512;29;20210;-73
2022/04/24 08:53:57;;;;;;;3.20;2.53;;;19.80;87.90;;;;;;4877965;29;20482;-72
2022/04/24 08:56:24;;;;;;;4.20;2.70;;;19.60;89.00;;;;;;4891930;29;20214;-72
2022/04/24 08:58:51;;;;;;;4.55;3.30;;;19.70;89.30;;;;;;4897328;29;20248;-72
2022/04/24 09:01:18;;;;;;;4.07;2.80;;;19.90;87.90;;;;;;4897564;29;20234;-72
2022/04/24 09:03:44;;;;;;;4.90;2.80;;;19.70;88.40;;;;;;4899649;29;20217;-72
2022/04/24 09:06:22;;;;;;;3.97;2.95;;;19.20;90.20;;;;;;4900621;29;20684;-72
2022/04/24 09:08:49;;;;;;;3.45;2.60;;;19.50;89.70;;;;;;4889795;29;20210;-72
2022/04/24 09:11:17;;;;;;;3.10;2.60;;;19.50;89.80;;;;;;4881474;29;20235;-73
2022/04/24 09:16:35;;;;;;;3.70;2.90;;;19.60;88.40;;;;;;4900329;29;20249;-72
2022/04/24 09:19:02;;;;;;;3.43;2.70;;;19.40;88.70;;;;;;4897991;29;20234;-72
2022/04/24 09:21:30;;;;;;;3.40;2.47;;;19.50;89.70;;;;;;4899202;29;20225;-72
2022/04/24 09:24:00;;;;;;;4.33;2.90;;;19.20;89.70;;;;;;4894371;29;20207;-71
2022/04/24 09:26:26;;;;;;;3.77;2.77;;;19.20;89.50;;;;;;4881728;29;20345;-71
2022/04/24 09:28:53;;;;;;;6.07;3.07;;;19.10;90.10;;;;;;4899578;29;20214;-71
2022/04/24 09:31:20;;;;;;;3.67;2.65;;;19.10;89.40;;;;;;4900009;29;20230;-72
2022/04/24 09:33:47;;;;;;;5.53;2.83;;;18.40;90.70;;;;;;4899249;29;20220;-72
2022/04/24 09:36:14;;;;;;;4.47;3.00;;;18.50;91.50;;;;;;4899554;29;20572;-72
2022/04/24 09:38:44;;;;;;;3.63;2.90;;;18.90;90.50;;;;;;4899572;29;20278;-72
2022/04/24 09:41:19;;;;;;;4.60;2.90;;;18.90;90.50;;;;;;4896363;29;20230;-72
2022/04/24 09:43:46;;;;;;;5.77;3.67;;;18.70;90.30;;;;;;4898397;29;20210;-72
2022/04/24 09:46:13;;;;;;;6.03;2.90;;;18.30;90.60;;;;;;4898766;29;20202;-72
2022/04/24 09:48:40;;;;;;;4.13;2.90;;;18.30;91.10;;;;;;4897807;29;20214;-72
2022/04/24 09:51:08;;;;;;;3.87;2.83;;;18.20;91.30;;;;;;4895689;29;20227;-72
2022/04/24 09:53:42;;;;;;;3.80;2.77;;;18.00;91.20;;;;;;4898090;29;20202;-71
2022/04/24 09:56:11;;;;;;;3.93;2.87;;;17.90;91.30;;;;;;4898804;29;20277;-73
2022/04/24 09:58:38;;;;;;;3.60;2.67;;;17.40;92.10;;;;;;4898290;29;20691;-73
2022/04/24 10:01:08;;;;;;;4.27;2.67;;;17.30;92.20;;;;;;4896957;29;20218;-72
2022/04/24 10:03:37;;;;;;;4.20;2.47;;;17.40;91.60;;;;;;4898927;29;20242;-72
2022/04/24 10:06:05;;;;;;;5.20;2.70;;;17.30;91.50;;;;;;4898670;29;20217;-72
2022/04/24 10:08:34;;;;;;;4.10;2.67;;;17.20;92.40;;;;;;4897583;29;20274;-72
2022/04/24 10:11:04;;;;;;;3.53;2.43;;;17.20;92.30;;;;;;4898403;29;20238;-72
2022/04/24 10:13:35;;;;;;;3.70;2.70;;;17.40;92.50;;;;;;4898737;29;20214;-73
2022/04/24 10:16:15;;;;;;;3.60;2.30;;;17.50;91.70;;;;;;4898835;29;20223;-71
2022/04/24 10:18:52;;;;;;;4.17;2.63;;;17.40;92.00;;;;;;4898066;29;20328;-74
2022/04/24 10:21:42;;;;;;;4.20;2.60;;;17.40;92.00;;;;;;4898506;29;20237;-71
2022/04/24 10:24:10;;;;;;;3.90;2.13;;;17.30;92.20;;;;;;4895350;29;20216;-72
2022/04/24 10:26:37;;;;;;;6.80;2.67;;;17.30;92.40;;;;;;4888787;29;20219;-72
2022/04/24 10:29:07;;;;;;;4.00;2.50;;;17.40;91.40;;;;;;4880071;29;20215;-73
2022/04/24 10:31:44;;;;;;;5.37;2.73;;;17.60;91.40;;;;;;4880098;29;20216;-72
2022/04/24 10:34:13;;;;;;;3.80;2.30;;;17.60;91.30;;;;;;4881691;29;20219;-73
2022/04/24 10:36:57;;;;;;;3.17;2.17;;;17.40;91.40;;;;;;4898566;29;20210;-73
2022/04/24 10:39:27;;;;;;;4.00;2.03;;;17.50;91.80;;;;;;4897790;29;20246;-72
2022/04/24 10:41:56;;;;;;;4.97;2.60;;;17.60;91.40;;;;;;4892244;29;20768;-73
2022/04/24 10:44:24;;;;;;;3.10;2.00;;;17.70;91.10;;;;;;4896858;29;20210;-73
2022/04/24 10:46:53;;;;;;;5.67;2.27;;;17.60;91.90;;;;;;4898828;29;20210;-73
2022/04/24 10:49:20;;;;;;;3.00;2.33;;;17.70;92.10;;;;;;4898496;29;20222;-72
2022/04/24 10:51:59;;;;;;;3.70;2.40;;;17.90;91.70;;;;;;4897709;29;20218;-73
2022/04/24 10:54:34;;;;;;;3.80;2.60;;;18.10;90.70;;;;;;4896789;29;20220;-73
2022/04/24 10:57:02;;;;;;;4.00;2.13;;;18.00;89.20;;;;;;4897643;29;20289;-74
2022/04/24 10:59:44;;;;;;;3.07;2.20;;;17.70;90.70;;;;;;4897257;29;20245;-73
2022/04/24 11:02:11;;;;;;;4.07;2.50;;;17.90;91.00;;;;;;4898221;29;20218;-73
2022/04/24 11:04:40;;;;;;;5.07;2.20;;;17.80;88.90;;;;;;4897358;29;20214;-73
2022/04/24 11:07:07;;;;;;;4.13;2.87;;;17.80;90.40;;;;;;4897743;29;20260;-73
2022/04/24 11:09:36;;;;;;;4.20;2.47;;;18.00;90.50;;;;;;4891633;29;20241;-74
2022/04/24 11:12:06;;;;;;;4.10;2.40;;;18.20;90.00;;;;;;4878863;29;20207;-72
2022/04/24 11:14:35;;;;;;;3.27;2.07;;;18.40;90.40;;;;;;4879174;29;20263;-72
2022/04/24 11:17:04;;;;;;;3.10;2.20;;;18.50;90.50;;;;;;4879625;29;20219;-70
2022/04/24 11:19:32;;;;;;;2.67;1.87;;;18.30;88.70;;;;;;4879276;29;20246;-72
2022/04/24 11:22:00;;;;;;;2.63;1.90;;;18.30;89.00;;;;;;4879661;29;20648;-73
2022/04/24 11:24:28;;;;;;;2.60;2.00;;;18.20;89.30;;;;;;4878616;29;20283;-72
2022/04/24 11:26:55;;;;;;;3.83;2.20;;;18.30;89.00;;;;;;4878605;29;20625;-72
2022/04/24 11:29:22;;;;;;;2.60;2.17;;;18.30;89.00;;;;;;4879347;29;20209;-72
2022/04/24 11:31:52;;;;;;;4.63;2.33;;;18.30;87.90;;;;;;4879718;29;20215;-72
2022/04/24 11:34:20;;;;;;;2.40;2.10;;;18.40;86.40;;;;;;4878982;29;20660;-72
2022/04/24 11:36:48;;;;;;;5.90;2.10;;;18.60;87.60;;;;;;4878621;29;20562;-72
2022/04/24 11:39:16;;;;;;;3.20;2.43;;;18.60;87.20;;;;;;4877828;29;20739;-73
2022/04/24 11:41:44;;;;;;;2.57;1.80;;;18.60;85.30;;;;;;4879137;29;20687;-72
2022/04/24 11:52:33;;;;;;;2.40;1.70;;;19.20;84.60;;;;;;4878881;29;20210;-72
2022/04/24 11:55:01;;;;;;;2.30;1.75;;;19.20;86.40;;;;;;4878914;29;20229;-71
2022/04/24 11:57:27;;;;;;;2.80;2.00;;;19.10;84.50;;;;;;4878780;29;20246;-73
2022/04/24 11:59:55;;;;;;;2.28;1.80;;;18.90;84.10;;;;;;4879003;29;20739;-73
2022/04/24 12:02:27;;;;;;;2.77;2.30;;;19.00;84.90;;;;;;4879087;29;20250;-73
2022/04/24 12:04:54;;;;;;;3.05;2.00;;;19.20;84.00;;;;;;4878490;29;20698;-72
2022/04/24 12:07:29;;;;;;;3.30;1.97;;;19.20;85.00;;;;;;4881304;29;20267;-71
2022/04/24 12:10:00;;;;;;;6.27;2.03;;;19.40;84.40;;;;;;4895555;29;20236;-72
2022/04/24 12:12:27;;;;;;;3.57;2.20;;;19.50;82.50;;;;;;4897263;29;20218;-71
2022/04/24 12:14:53;;;;;;;2.70;2.10;;;19.30;82.00;;;;;;4896138;29;20232;-71
2022/04/24 12:17:21;;;;;;;2.53;1.70;;;19.10;82.10;;;;;;4897237;29;20221;-71
2022/04/24 12:19:54;;;;;;;2.47;1.73;;;19.20;82.90;;;;;;4896868;29;20249;-72
2022/04/24 12:22:28;;;;;;;2.80;2.13;;;19.00;82.70;;;;;;4897244;29;20210;-71
2022/04/24 12:25:07;;;;;;;3.95;2.10;;;19.10;82.70;;;;;;4897330;29;20233;-72
2022/04/24 12:27:34;;;;;;;4.33;1.90;;;19.00;83.90;;;;;;4897367;29;20584;-72
2022/04/24 12:30:04;;;;;;;3.10;1.77;;;19.10;80.80;;;;;;4896203;29;20234;-72
2022/04/24 12:32:31;;;;;;;3.70;1.63;;;19.30;80.20;;;;;;4897137;29;20214;-72
2022/04/24 12:34:59;;;;;;;3.27;1.80;;;19.60;79.60;;;;;;4896320;29;20293;-71
2022/04/24 12:37:30;;;;;;;2.87;1.90;;;19.80;79.90;;;;;;4896274;29;20228;-71
2022/04/24 12:39:58;;;;;;;3.30;2.00;;;19.90;81.10;;;;;;4899785;29;20240;-72
2022/04/24 12:42:25;;;;;;;4.00;1.70;;;19.60;80.70;;;;;;4899942;29;20214;-71
2022/04/24 12:44:53;;;;;;;3.00;1.93;;;19.40;79.60;;;;;;4899693;29;20210;-72
2022/04/24 12:47:20;;;;;;;3.67;1.90;;;19.30;80.30;;;;;;4900551;29;20211;-72
2022/04/24 12:49:47;;;;;;;2.20;1.77;;;19.30;79.20;;;;;;4900050;29;20328;-72
2022/04/24 12:52:15;;;;;;;1.90;1.40;;;19.30;78.70;;;;;;4900466;29;20210;-71
2022/04/24 12:54:43;;;;;;;2.35;1.83;;;19.60;79.80;;;;;;4899053;29;20253;-72
2022/04/24 12:57:10;;;;;;;4.93;2.03;;;19.70;79.20;;;;;;4899205;29;20732;-71
2022/04/24 12:59:39;;;;;;;2.65;2.10;;;20.00;80.60;;;;;;4898831;29;20842;-71
2022/04/24 13:02:07;;;;;;;4.53;1.70;;;20.00;80.60;;;;;;4884603;29;20211;-72